createdAt,value
2019-02-05T00:00:39.339Z,4.97
2019-02-05T00:03:11.410Z,4.98
2019-02-05T00:05:40.038Z,4.96
2019-02-05T00:08:08.826Z,4.98
2019-02-05T00:10:37.460Z,5.06
2019-02-05T00:13:06.303Z,5.19
2019-02-05T00:15:35.254Z,5.23
2019-02-05T00:18:04.076Z,5.25
2019-02-05T00:20:32.706Z,5.28
2019-02-05T00:23:01.396Z,5.36
2019-02-05T00:25:30.017Z,5.39
2019-02-05T00:27:58.732Z,5.45
2019-02-05T00:30:27.795Z,5.60
2019-02-05T00:32:56.427Z,5.72
2019-02-05T00:35:25.138Z,5.79
2019-02-05T00:37:53.788Z,5.76
2019-02-05T00:40:22.514Z,5.63
2019-02-05T00:42:51.104Z,5.67
2019-02-05T00:45:21.161Z,5.68
2019-02-05T00:47:49.782Z,5.76
2019-02-05T00:50:19.415Z,5.75
2019-02-05T00:52:48.068Z,5.79
2019-02-05T00:55:18.299Z,5.83
2019-02-05T00:57:47.031Z,5.84
2019-02-05T01:00:18.939Z,5.72
2019-02-05T01:02:47.742Z,5.58
2019-02-05T01:05:16.775Z,5.47
2019-02-05T01:07:45.560Z,5.35
2019-02-05T01:10:14.889Z,5.31
2019-02-05T01:12:43.523Z,5.35
2019-02-05T01:15:20.430Z,5.16
2019-02-05T01:17:49.057Z,5.21
2019-02-05T01:20:19.192Z,5.17
2019-02-05T01:22:49.461Z,5.20
2019-02-05T01:25:21.504Z,5.28
2019-02-05T01:27:50.900Z,5.28
2019-02-05T01:30:24.617Z,5.25
2019-02-05T01:32:53.536Z,5.21
2019-02-05T01:35:22.556Z,5.22
2019-02-05T01:37:51.146Z,5.26
2019-02-05T01:40:21.664Z,5.27
2019-02-05T01:42:50.497Z,5.23
2019-02-05T01:45:20.870Z,5.32
2019-02-05T01:47:49.484Z,5.44
2019-02-05T01:50:22.833Z,5.50
2019-02-05T01:52:51.637Z,5.49
2019-02-05T01:55:20.538Z,5.48
2019-02-05T01:57:49.277Z,5.60
2019-02-05T02:00:23.438Z,5.62
2019-02-05T02:02:52.028Z,5.50
2019-02-05T02:05:20.577Z,5.60
2019-02-05T02:07:49.527Z,5.53
2019-02-05T02:10:21.177Z,5.56
2019-02-05T02:12:49.893Z,5.66
2019-02-05T02:15:18.999Z,5.67
2019-02-05T02:17:47.821Z,5.65
2019-02-05T02:20:20.519Z,5.75
2019-02-05T02:22:49.176Z,5.78
2019-02-05T02:25:18.507Z,5.75
2019-02-05T02:27:48.241Z,5.78
2019-02-05T02:30:28.580Z,5.71
2019-02-05T02:32:57.317Z,5.67
2019-02-05T02:35:25.944Z,5.68
2019-02-05T02:37:54.993Z,5.60
2019-02-05T02:40:23.693Z,5.56
2019-02-05T02:42:52.326Z,5.43
2019-02-05T02:45:20.923Z,5.41
2019-02-05T02:47:49.554Z,5.36
2019-02-05T02:50:19.875Z,5.27
2019-02-05T02:52:48.953Z,5.41
2019-02-05T02:55:17.627Z,5.37
2019-02-05T02:57:46.251Z,5.36
2019-02-05T03:00:17.221Z,5.48
2019-02-05T03:02:46.458Z,5.48
2019-02-05T03:05:17.272Z,5.42
2019-02-05T03:07:46.773Z,5.28
2019-02-05T03:10:23.330Z,5.20
2019-02-05T03:12:52.305Z,5.10
2019-02-05T03:15:21.026Z,5.01
2019-02-05T03:17:49.654Z,5.00
2019-02-05T03:20:18.408Z,4.98
2019-02-05T03:22:47.038Z,4.93
2019-02-05T03:25:21.541Z,4.91
2019-02-05T03:27:53.685Z,4.91
2019-02-05T03:30:23.333Z,4.87
2019-02-05T03:32:53.249Z,4.88
2019-02-05T03:35:22.127Z,4.84
2019-02-05T03:37:50.691Z,4.75
2019-02-05T03:40:31.765Z,4.85
2019-02-05T03:43:00.414Z,4.78
2019-02-05T03:45:31.831Z,4.74
2019-02-05T03:48:02.387Z,4.73
2019-02-05T03:50:33.761Z,4.65
2019-02-05T03:53:20.640Z,4.60
2019-02-05T03:56:04.055Z,4.61
2019-02-05T03:58:35.650Z,4.53
2019-02-05T04:01:27.173Z,4.49
2019-02-05T04:04:04.798Z,4.40
2019-02-05T04:06:59.020Z,4.23
2019-02-05T04:09:49.993Z,4.15
2019-02-05T04:12:24.386Z,4.13
2019-02-05T04:14:59.315Z,4.15
2019-02-05T04:17:39.696Z,4.07
2019-02-05T04:20:20.205Z,4.09
2019-02-05T04:23:03.467Z,4.09
2019-02-05T04:25:37.775Z,4.12
2019-02-05T04:28:34.955Z,4.05
2019-02-05T04:31:24.561Z,3.96
2019-02-05T04:34:07.924Z,3.95
2019-02-05T04:36:48.122Z,3.99
2019-02-05T04:39:25.445Z,3.98
2019-02-05T04:42:09.005Z,3.98
2019-02-05T04:44:49.615Z,3.98
2019-02-05T04:47:29.734Z,3.95
2019-02-05T04:50:01.285Z,3.89
2019-02-05T04:52:44.862Z,3.85
2019-02-05T04:55:22.389Z,3.86
2019-02-05T04:58:25.741Z,3.86
2019-02-05T05:01:17.145Z,3.92
2019-02-05T05:04:08.087Z,3.91
2019-02-05T05:07:01.273Z,3.97
2019-02-05T05:09:41.925Z,3.96
2019-02-05T05:12:10.599Z,4.06
2019-02-05T05:14:39.624Z,4.05
2019-02-05T05:17:08.309Z,4.06
2019-02-05T05:19:36.943Z,4.09
2019-02-05T05:22:06.172Z,3.95
2019-02-05T05:24:34.982Z,3.99
2019-02-05T05:27:05.409Z,4.07
2019-02-05T05:29:34.234Z,4.06
2019-02-05T05:32:03.410Z,4.18
2019-02-05T05:34:32.043Z,4.16
2019-02-05T05:36:59.377Z,4.20
2019-02-05T05:39:28.055Z,4.11
2019-02-05T05:41:56.616Z,3.98
2019-02-05T05:44:25.252Z,3.99
2019-02-05T05:46:53.937Z,3.97
2019-02-05T05:49:22.942Z,3.86
2019-02-05T05:51:51.577Z,3.92
2019-02-05T05:54:20.282Z,3.93
2019-02-05T05:56:48.834Z,3.92
2019-02-05T05:59:17.480Z,3.99
2019-02-05T06:01:46.143Z,4.04
2019-02-05T06:04:14.869Z,4.07
2019-02-05T06:06:43.778Z,4.13
2019-02-05T06:09:12.660Z,4.17
2019-02-05T06:11:42.297Z,4.17
2019-02-05T06:14:10.932Z,4.29
2019-02-05T06:16:39.614Z,4.32
2019-02-05T06:19:08.377Z,4.30
2019-02-05T06:21:37.015Z,4.26
2019-02-05T06:24:05.911Z,4.32
2019-02-05T06:26:34.567Z,4.27
2019-02-05T06:29:03.195Z,4.24
2019-02-05T06:31:31.867Z,4.18
2019-02-05T06:34:00.606Z,4.25
2019-02-05T06:36:29.394Z,4.17
2019-02-05T06:38:58.014Z,4.22
2019-02-05T06:41:26.660Z,4.17
2019-02-05T06:43:55.299Z,4.34
2019-02-05T06:46:23.991Z,4.39
2019-02-05T06:48:52.613Z,4.35
2019-02-05T06:51:21.255Z,4.47
2019-02-05T06:53:49.932Z,4.49
2019-02-05T06:56:18.926Z,4.53
2019-02-05T06:58:47.507Z,4.49
2019-02-05T07:01:16.602Z,4.49
2019-02-05T07:03:45.247Z,4.49
2019-02-05T07:06:13.869Z,4.54
2019-02-05T07:08:42.740Z,4.50
2019-02-05T07:11:11.456Z,4.45
2019-02-05T07:13:40.393Z,4.42
2019-02-05T07:16:09.143Z,4.19
2019-02-05T07:18:37.767Z,4.34
2019-02-05T07:21:06.389Z,4.40
2019-02-05T07:23:35.082Z,4.49
2019-02-05T07:26:03.738Z,4.49
2019-02-05T07:28:32.387Z,4.44
2019-02-05T07:31:01.436Z,4.34
2019-02-05T07:33:29.990Z,4.44
2019-02-05T07:35:58.546Z,4.56
2019-02-05T07:38:27.235Z,4.61
2019-02-05T07:40:55.872Z,4.63
2019-02-05T07:43:24.520Z,4.57
2019-02-05T07:45:53.202Z,4.74
2019-02-05T07:48:21.829Z,4.79
2019-02-05T07:50:50.776Z,4.92
2019-02-05T07:53:19.693Z,4.88
2019-02-05T07:55:48.258Z,4.87
2019-02-05T07:58:16.950Z,4.85
2019-02-05T08:00:45.704Z,4.89
2019-02-05T08:03:14.336Z,4.95
2019-02-05T08:05:42.960Z,5.07
2019-02-05T08:08:12.114Z,5.08
2019-02-05T08:10:40.752Z,5.20
2019-02-05T08:13:09.777Z,5.18
2019-02-05T08:15:38.447Z,5.11
2019-02-05T08:18:08.600Z,5.14
2019-02-05T08:20:37.236Z,5.17
2019-02-05T08:23:05.887Z,5.16
2019-02-05T08:25:34.616Z,5.22
2019-02-05T08:28:03.811Z,5.24
2019-02-05T08:30:41.588Z,5.39
2019-02-05T08:33:10.201Z,5.51
2019-02-05T08:35:38.905Z,5.64
2019-02-05T08:38:07.860Z,5.71
2019-02-05T08:40:36.507Z,5.63
2019-02-05T08:43:06.002Z,5.66
2019-02-05T08:45:36.874Z,5.68
2019-02-05T08:48:07.636Z,5.87
2019-02-05T08:50:36.570Z,6.09
2019-02-05T08:53:05.766Z,6.07
2019-02-05T08:55:34.419Z,6.21
2019-02-05T08:58:08.414Z,6.39
2019-02-05T09:00:42.235Z,6.65
2019-02-05T09:03:11.861Z,6.73
2019-02-05T09:05:40.916Z,6.67
2019-02-05T09:08:09.821Z,6.77
2019-02-05T09:10:42.476Z,6.85
2019-02-05T09:13:11.458Z,6.98
2019-02-05T09:15:40.088Z,6.79
2019-02-05T09:18:09.106Z,7.16
2019-02-05T09:20:37.746Z,7.35
2019-02-05T09:23:07.022Z,7.32
2019-02-05T09:25:35.666Z,7.43
2019-02-05T09:28:04.720Z,7.22
2019-02-05T09:30:37.578Z,7.65
2019-02-05T09:33:12.176Z,7.90
2019-02-05T09:35:40.852Z,7.93
2019-02-05T09:38:09.476Z,7.90
2019-02-05T09:40:38.116Z,7.57
2019-02-05T09:43:06.792Z,7.80
2019-02-05T09:45:35.766Z,7.89
2019-02-05T09:48:04.593Z,7.75
2019-02-05T09:50:44.316Z,7.83
2019-02-05T09:53:03.979Z,7.80
2019-02-05T09:55:32.602Z,7.41
2019-02-05T09:58:01.150Z,7.42
2019-02-05T10:00:38.068Z,7.35
2019-02-05T10:03:07.431Z,7.29
2019-02-05T10:05:36.832Z,7.46
2019-02-05T10:08:06.180Z,7.61
2019-02-05T10:10:34.970Z,7.92
2019-02-05T10:13:03.957Z,8.31
2019-02-05T10:15:41.176Z,8.43
2019-02-05T10:18:11.899Z,8.43
2019-02-05T10:20:40.660Z,8.47
2019-02-05T10:23:10.113Z,8.23
2019-02-05T10:25:38.839Z,8.14
2019-02-05T10:28:07.479Z,8.26
2019-02-05T10:30:38.710Z,8.37
2019-02-05T10:33:07.939Z,8.06
2019-02-05T10:35:36.667Z,8.18
2019-02-05T10:38:05.936Z,8.26
2019-02-05T10:40:34.688Z,8.37
2019-02-05T10:43:03.255Z,8.47
2019-02-05T10:45:31.887Z,8.17
2019-02-05T10:48:00.634Z,7.92
2019-02-05T10:50:29.262Z,7.72
2019-02-05T10:52:57.920Z,7.64
2019-02-05T10:55:26.551Z,7.81
2019-02-05T10:57:56.172Z,7.76
2019-02-05T11:00:30.041Z,8.00
2019-02-05T11:03:00.673Z,8.00
2019-02-05T11:05:30.473Z,8.15
2019-02-05T11:07:59.722Z,8.22
2019-02-05T11:10:28.326Z,8.35
2019-02-05T11:12:57.079Z,8.48
2019-02-05T11:15:28.264Z,8.63
2019-02-05T11:17:56.903Z,8.89
2019-02-05T11:20:27.615Z,9.12
2019-02-05T11:22:56.379Z,9.40
2019-02-05T11:25:25.306Z,9.60
2019-02-05T11:27:53.938Z,9.69
2019-02-05T11:30:31.683Z,9.67
2019-02-05T11:33:00.313Z,9.68
2019-02-05T11:35:29.423Z,9.92
2019-02-05T11:37:58.196Z,9.85
2019-02-05T11:40:29.628Z,9.99
2019-02-05T11:42:58.265Z,10.16
2019-02-05T11:45:26.958Z,10.23
2019-02-05T11:47:55.997Z,10.24
2019-02-05T11:50:25.135Z,10.46
2019-02-05T11:52:54.081Z,10.55
2019-02-05T11:55:27.887Z,10.61
2019-02-05T11:57:56.610Z,10.65
2019-02-05T12:00:39.501Z,10.80
2019-02-05T12:03:09.670Z,10.83
2019-02-05T12:05:38.513Z,10.89
2019-02-05T12:08:07.494Z,10.95
2019-02-05T12:10:36.122Z,10.94
2019-02-05T12:13:05.062Z,11.14
2019-02-05T12:15:33.723Z,11.16
2019-02-05T12:18:02.450Z,11.16
2019-02-05T12:20:31.113Z,11.07
2019-02-05T12:23:00.409Z,11.17
2019-02-05T12:25:29.041Z,11.18
2019-02-05T12:27:57.666Z,11.34
2019-02-05T12:30:45.184Z,11.27
2019-02-05T12:33:10.749Z,11.45
2019-02-05T12:35:39.492Z,11.46
2019-02-05T12:38:09.193Z,11.42
2019-02-05T12:40:37.845Z,11.34
2019-02-05T12:43:06.486Z,11.40
2019-02-05T12:45:37.266Z,11.57
2019-02-05T12:48:06.397Z,11.69
2019-02-05T12:50:37.634Z,11.85
2019-02-05T12:53:06.928Z,11.63
2019-02-05T12:55:35.569Z,11.82
2019-02-05T12:58:04.817Z,11.89
2019-02-05T13:00:36.273Z,12.03
2019-02-05T13:03:05.380Z,12.11
2019-02-05T13:05:34.007Z,11.81
2019-02-05T13:08:05.344Z,11.56
2019-02-05T13:10:35.814Z,11.36
2019-02-05T13:13:06.264Z,11.27
2019-02-05T13:15:34.992Z,11.06
2019-02-05T13:18:03.912Z,10.84
2019-02-05T13:20:32.764Z,10.85
2019-02-05T13:23:03.045Z,10.80
2019-02-05T13:25:35.011Z,10.71
2019-02-05T13:28:05.062Z,10.65
2019-02-05T13:30:35.470Z,10.68
2019-02-05T13:33:05.108Z,10.70
2019-02-05T13:35:34.085Z,10.57
2019-02-05T13:38:02.752Z,10.43
2019-02-05T13:40:31.379Z,10.31
2019-02-05T13:43:00.615Z,10.24
2019-02-05T13:45:31.972Z,10.20
2019-02-05T13:48:00.740Z,10.03
2019-02-05T13:50:33.394Z,9.97
2019-02-05T13:53:02.250Z,9.98
2019-02-05T13:55:33.186Z,9.94
2019-02-05T13:58:01.991Z,9.91
2019-02-05T14:00:45.234Z,9.79
2019-02-05T14:03:13.968Z,9.60
2019-02-05T14:05:42.782Z,9.32
2019-02-05T14:08:11.450Z,9.23
2019-02-05T14:10:42.281Z,9.14
2019-02-05T14:13:11.129Z,9.02
2019-02-05T14:15:45.019Z,8.97
2019-02-05T14:18:13.715Z,8.87
2019-02-05T14:20:42.345Z,8.83
2019-02-05T14:23:11.212Z,8.82
2019-02-05T14:25:40.054Z,8.72
2019-02-05T14:28:08.688Z,8.61
2019-02-05T14:30:42.607Z,8.64
2019-02-05T14:33:11.228Z,8.54
2019-02-05T14:35:40.107Z,8.53
2019-02-05T14:38:09.302Z,8.27
2019-02-05T14:40:37.932Z,8.29
2019-02-05T14:43:07.145Z,8.31
2019-02-05T14:45:36.347Z,8.26
2019-02-05T14:48:06.411Z,8.36
2019-02-05T14:50:39.900Z,8.19
2019-02-05T14:53:09.983Z,8.29
2019-02-05T14:55:38.632Z,8.18
2019-02-05T14:58:09.267Z,8.25
2019-02-05T15:00:38.575Z,8.13
2019-02-05T15:03:12.056Z,7.97
2019-02-05T15:05:41.217Z,7.81
2019-02-05T15:08:10.552Z,7.82
2019-02-05T15:10:39.239Z,7.63
2019-02-05T15:13:07.959Z,7.62
2019-02-05T15:15:36.744Z,7.46
2019-02-05T15:18:07.280Z,7.46
2019-02-05T15:20:44.064Z,7.41
2019-02-05T15:23:12.792Z,7.25
2019-02-05T15:25:41.615Z,7.03
2019-02-05T15:28:10.634Z,7.02
2019-02-05T15:30:45.765Z,6.90
2019-02-05T15:33:33.666Z,6.74
2019-02-05T15:36:03.945Z,6.57
2019-02-05T15:38:32.775Z,6.43
2019-02-05T15:41:01.453Z,6.32
2019-02-05T15:43:30.051Z,6.33
2019-02-05T15:45:58.669Z,6.20
2019-02-05T15:48:27.362Z,6.19
2019-02-05T15:50:55.988Z,6.08
2019-02-05T15:53:25.099Z,6.02
2019-02-05T15:55:53.780Z,5.98
2019-02-05T15:58:22.354Z,5.90
2019-02-05T16:00:50.918Z,5.77
2019-02-05T16:03:19.594Z,5.67
2019-02-05T16:05:48.235Z,5.64
2019-02-05T16:08:16.742Z,5.57
2019-02-05T16:10:52.913Z,5.52
2019-02-05T16:13:21.550Z,5.40
2019-02-05T16:15:50.189Z,5.34
2019-02-05T16:18:18.863Z,5.41
2019-02-05T16:20:47.524Z,5.36
2019-02-05T16:23:16.511Z,5.40
2019-02-05T16:25:45.118Z,5.35
2019-02-05T16:28:13.746Z,5.33
2019-02-05T16:30:42.413Z,5.29
2019-02-05T16:33:11.097Z,5.23
2019-02-05T16:35:39.661Z,5.23
2019-02-05T16:38:08.312Z,5.26
2019-02-05T16:40:39.182Z,5.22
2019-02-05T16:43:07.943Z,5.20
2019-02-05T16:45:36.583Z,5.24
2019-02-05T16:48:06.010Z,5.19
2019-02-05T16:50:37.431Z,5.18
2019-02-05T16:53:08.140Z,5.17
2019-02-05T16:55:36.776Z,5.15
2019-02-05T16:58:06.882Z,5.21
2019-02-05T17:00:36.706Z,5.24
2019-02-05T17:03:06.589Z,5.31
2019-02-05T17:05:37.958Z,5.29
2019-02-05T17:08:07.067Z,5.33
2019-02-05T17:10:35.832Z,5.27
2019-02-05T17:13:05.360Z,5.30
2019-02-05T17:15:34.065Z,5.34
2019-02-05T17:18:02.745Z,5.28
2019-02-05T17:20:32.685Z,5.35
2019-02-05T17:23:01.326Z,5.24
2019-02-05T17:25:30.201Z,5.21
2019-02-05T17:28:03.279Z,5.18
2019-02-05T17:30:34.435Z,5.07
2019-02-05T17:33:03.193Z,4.99
2019-02-05T17:35:31.929Z,5.08
2019-02-05T17:38:09.242Z,5.11
2019-02-05T17:40:38.084Z,5.09
2019-02-05T17:43:07.318Z,5.02
2019-02-05T17:45:38.544Z,4.94
2019-02-05T17:48:10.122Z,5.05
2019-02-05T17:50:38.820Z,5.01
2019-02-05T17:53:07.574Z,4.93
2019-02-05T17:55:36.209Z,4.88
2019-02-05T17:58:05.347Z,4.75
2019-02-05T18:00:36.539Z,4.72
2019-02-05T18:03:05.790Z,4.75
2019-02-05T18:05:34.997Z,4.81
2019-02-05T18:08:04.784Z,4.86
2019-02-05T18:10:33.410Z,4.83
2019-02-05T18:13:02.048Z,4.86
2019-02-05T18:15:54.105Z,4.89
2019-02-05T18:18:22.970Z,4.86
2019-02-05T18:20:51.600Z,4.80
2019-02-05T18:23:20.230Z,4.70
2019-02-05T18:25:48.882Z,4.70
2019-02-05T18:28:17.570Z,4.69
2019-02-05T18:30:46.301Z,4.71
2019-02-05T18:33:15.311Z,4.74
2019-02-05T18:35:44.064Z,4.73
2019-02-05T18:38:15.300Z,4.79
2019-02-05T18:40:43.934Z,4.72
2019-02-05T18:43:12.622Z,4.75
2019-02-05T18:45:41.262Z,4.77
2019-02-05T18:48:10.295Z,4.72
2019-02-05T18:50:38.962Z,4.70
2019-02-05T18:53:07.598Z,4.69
2019-02-05T18:55:38.732Z,4.62
2019-02-05T18:58:09.652Z,4.63
2019-02-05T19:00:40.911Z,4.66
2019-02-05T19:03:15.613Z,4.68
2019-02-05T19:05:41.472Z,4.72
2019-02-05T19:08:10.700Z,4.70
2019-02-05T19:10:39.897Z,4.66
2019-02-05T19:13:09.089Z,4.70
2019-02-05T19:15:39.786Z,4.80
2019-02-05T19:18:09.323Z,4.83
2019-02-05T19:20:46.721Z,4.90
2019-02-05T19:23:15.204Z,4.87
2019-02-05T19:25:48.424Z,4.94
2019-02-05T19:28:21.579Z,4.91
2019-02-05T19:30:51.836Z,5.03
2019-02-05T19:33:27.322Z,5.00
2019-02-05T19:35:50.774Z,5.12
2019-02-05T19:38:19.601Z,5.13
2019-02-05T19:40:57.200Z,5.11
2019-02-05T19:43:18.766Z,5.13
2019-02-05T19:45:51.969Z,5.00
2019-02-05T19:48:25.246Z,5.13
2019-02-05T19:50:54.085Z,5.02
2019-02-05T19:53:28.609Z,5.12
2019-02-05T19:55:57.663Z,5.21
2019-02-05T19:58:26.284Z,5.15
2019-02-05T20:00:55.385Z,5.08
2019-02-05T20:03:24.038Z,5.13
2019-02-05T20:05:52.669Z,5.11
2019-02-05T20:08:21.293Z,5.14
2019-02-05T20:10:50.034Z,5.20
2019-02-05T20:13:18.656Z,5.18
2019-02-05T20:15:47.386Z,5.21
2019-02-05T20:18:16.332Z,5.16
2019-02-05T20:20:44.957Z,5.16
2019-02-05T20:23:13.600Z,5.14
2019-02-05T20:25:49.626Z,5.19
2019-02-05T20:28:18.247Z,5.23
2019-02-05T20:30:46.872Z,5.22
2019-02-05T20:33:15.740Z,5.23
2019-02-05T20:35:44.369Z,5.27
2019-02-05T20:38:12.987Z,5.27
2019-02-05T20:40:41.681Z,5.33
2019-02-05T20:43:10.282Z,5.29
2019-02-05T20:45:38.899Z,5.35
2019-02-05T20:48:07.949Z,5.33
2019-02-05T20:50:36.850Z,5.36
2019-02-05T20:53:13.320Z,5.35
2019-02-05T20:55:36.051Z,5.34
2019-02-05T20:58:13.753Z,5.21
2019-02-05T21:00:42.547Z,5.31
2019-02-05T21:03:11.162Z,5.28
2019-02-05T21:05:40.156Z,5.33
2019-02-05T21:08:08.811Z,5.28
2019-02-05T21:10:37.430Z,5.32
2019-02-05T21:13:06.055Z,5.28
2019-02-05T21:15:34.634Z,5.33
2019-02-05T21:18:03.256Z,5.31
2019-02-05T21:20:33.931Z,5.36
2019-02-05T21:23:03.558Z,5.33
2019-02-05T21:25:32.390Z,5.29
2019-02-05T21:28:01.101Z,5.31
2019-02-05T21:30:29.756Z,5.22
2019-02-05T21:32:58.368Z,5.26
2019-02-05T21:35:26.924Z,5.34
2019-02-05T21:37:55.582Z,5.33
2019-02-05T21:40:27.946Z,5.28
2019-02-05T21:42:56.592Z,5.22
2019-02-05T21:45:27.523Z,5.30
2019-02-05T21:47:56.130Z,5.31
2019-02-05T21:50:24.844Z,5.25
2019-02-05T21:52:53.658Z,5.22
2019-02-05T21:55:23.472Z,5.22
2019-02-05T21:57:52.435Z,5.25
2019-02-05T22:00:26.508Z,5.21
2019-02-05T22:02:55.573Z,5.23
2019-02-05T22:05:25.130Z,5.23
2019-02-05T22:07:53.723Z,5.29
2019-02-05T22:10:22.617Z,5.27
2019-02-05T22:12:51.262Z,5.23
2019-02-05T22:15:20.855Z,5.23
2019-02-05T22:17:49.479Z,5.18
2019-02-05T22:20:24.626Z,5.23
2019-02-05T22:22:56.087Z,5.21
2019-02-05T22:25:33.532Z,5.20
2019-02-05T22:28:02.152Z,5.21
2019-02-05T22:30:35.727Z,5.11
2019-02-05T22:33:05.898Z,5.13
2019-02-05T22:35:34.508Z,5.13
2019-02-05T22:38:03.131Z,5.07
2019-02-05T22:40:31.808Z,5.06
2019-02-05T22:43:00.423Z,5.01
2019-02-05T22:45:31.479Z,4.92
2019-02-05T22:48:00.152Z,4.91
2019-02-05T22:50:33.859Z,4.88
2019-02-05T22:53:04.481Z,4.87
2019-02-05T22:55:33.157Z,4.85
2019-02-05T22:58:05.918Z,4.81
2019-02-05T23:00:54.291Z,4.73
2019-02-05T23:03:32.209Z,4.73
2019-02-05T23:06:07.002Z,4.71
2019-02-05T23:08:35.959Z,4.74
2019-02-05T23:11:24.444Z,4.68
2019-02-05T23:13:53.109Z,4.68
2019-02-05T23:16:21.794Z,4.69
2019-02-05T23:18:50.396Z,4.69
2019-02-05T23:21:19.011Z,4.69
2019-02-05T23:23:47.745Z,4.67
2019-02-05T23:26:16.632Z,4.58
2019-02-05T23:28:45.299Z,4.56
2019-02-05T23:31:13.915Z,4.60
2019-02-05T23:33:44.744Z,4.56
2019-02-05T23:36:12.940Z,4.53
2019-02-05T23:38:42.289Z,4.50
2019-02-05T23:41:11.542Z,4.52
2019-02-05T23:43:40.172Z,4.48
2019-02-05T23:46:08.804Z,4.45
2019-02-05T23:48:37.475Z,4.40
2019-02-05T23:51:06.116Z,4.48
2019-02-05T23:53:34.822Z,4.39
2019-02-05T23:56:03.491Z,4.40
2019-02-05T23:58:32.433Z,4.33
